createdAt,value
2023-05-21T00:00:10.752Z,5.60
2023-05-21T00:03:14.260Z,5.23
2023-05-21T00:06:16.390Z,5.10
2023-05-21T00:09:18.339Z,4.47
2023-05-21T00:12:21.031Z,5.00
2023-05-21T00:15:22.926Z,5.10
2023-05-21T00:18:27.966Z,6.13
2023-05-21T00:21:30.088Z,5.37
2023-05-21T00:24:32.100Z,5.27
2023-05-21T00:27:34.148Z,5.17
2023-05-21T00:30:36.205Z,4.70
2023-05-21T00:33:38.182Z,5.17
2023-05-21T00:36:40.924Z,4.93
2023-05-21T00:39:43.534Z,4.93
2023-05-21T00:42:48.540Z,4.83
2023-05-21T00:45:50.559Z,4.70
2023-05-21T00:48:52.665Z,4.90
2023-05-21T00:51:55.399Z,5.30
2023-05-21T00:54:57.318Z,5.00
2023-05-21T00:57:59.391Z,5.03
2023-05-21T01:01:07.252Z,5.20
2023-05-21T01:04:09.453Z,5.07
2023-05-21T01:07:11.484Z,5.20
2023-05-21T01:10:13.602Z,5.07
2023-05-21T01:13:16.531Z,5.40
2023-05-21T01:16:19.075Z,5.53
2023-05-21T01:19:22.669Z,4.90
2023-05-21T01:22:25.914Z,5.20
2023-05-21T01:25:27.958Z,5.63
2023-05-21T01:28:34.044Z,5.33
2023-05-21T01:32:02.362Z,5.43
2023-05-21T01:35:04.834Z,5.30
2023-05-21T01:38:26.635Z,6.03
2023-05-21T01:41:30.344Z,6.07
2023-05-21T01:44:34.065Z,5.43
2023-05-21T01:47:37.549Z,4.73
2023-05-21T01:50:41.372Z,5.33
2023-05-21T01:53:44.052Z,5.20
2023-05-21T01:56:46.421Z,5.93
2023-05-21T01:59:48.350Z,5.67
2023-05-21T02:02:52.080Z,6.10
2023-05-21T02:05:55.942Z,5.30
2023-05-21T02:08:57.880Z,5.90
2023-05-21T02:11:59.870Z,5.83
2023-05-21T02:15:03.131Z,6.23
2023-05-21T02:18:05.280Z,5.00
2023-05-21T02:21:07.232Z,5.57
2023-05-21T02:24:09.211Z,5.73
2023-05-21T02:27:13.702Z,5.87
2023-05-21T02:30:16.442Z,5.93
2023-05-21T02:33:20.048Z,5.73
2023-05-21T02:36:22.313Z,5.77
2023-05-21T02:39:24.270Z,5.70
2023-05-21T02:42:26.608Z,5.97
2023-05-21T02:45:28.924Z,5.83
2023-05-21T02:48:30.940Z,6.20
2023-05-21T02:51:32.960Z,5.90
2023-05-21T02:54:35.367Z,6.40
2023-05-21T02:57:37.330Z,5.87
2023-05-21T03:00:39.814Z,6.33
2023-05-21T03:03:41.794Z,5.67
2023-05-21T03:06:44.814Z,5.73
2023-05-21T03:09:47.593Z,6.43
2023-05-21T03:12:49.634Z,5.97
2023-05-21T03:15:56.418Z,5.90
2023-05-21T03:18:58.471Z,6.60
2023-05-21T03:22:01.930Z,6.30
2023-05-21T03:25:04.608Z,6.70
2023-05-21T03:28:07.459Z,6.17
2023-05-21T03:31:09.385Z,6.23
2023-05-21T03:34:11.370Z,6.50
2023-05-21T03:37:13.361Z,6.03
2023-05-21T03:40:15.616Z,5.63
2023-05-21T03:43:17.543Z,6.67
2023-05-21T03:46:19.957Z,6.47
2023-05-21T03:49:21.932Z,6.33
2023-05-21T03:52:23.981Z,6.07
2023-05-21T03:55:26.141Z,6.70
2023-05-21T03:58:28.470Z,6.77
2023-05-21T04:01:30.743Z,6.60
2023-05-21T04:04:34.754Z,6.63
2023-05-21T04:07:38.521Z,6.17
2023-05-21T04:10:40.740Z,6.30
2023-05-21T04:13:42.712Z,6.27
2023-05-21T04:16:45.895Z,6.73
2023-05-21T04:19:47.874Z,5.77
2023-05-21T04:22:49.865Z,6.10
2023-05-21T04:25:51.877Z,6.67
2023-05-21T04:28:54.817Z,6.43
2023-05-21T04:31:56.771Z,6.50
2023-05-21T04:34:58.783Z,5.73
2023-05-21T04:38:04.092Z,6.33
2023-05-21T04:41:07.323Z,6.63
2023-05-21T04:44:15.374Z,5.83
2023-05-21T04:47:18.806Z,6.30
2023-05-21T04:50:20.796Z,6.53
2023-05-21T04:53:23.978Z,6.07
2023-05-21T04:56:29.714Z,5.57
2023-05-21T04:59:32.350Z,5.63
2023-05-21T05:02:34.333Z,6.07
2023-05-21T05:05:37.044Z,6.03
2023-05-21T05:08:39.204Z,5.80
2023-05-21T05:11:42.082Z,5.50
2023-05-21T05:14:43.987Z,4.93
2023-05-21T05:17:48.691Z,5.33
2023-05-21T05:20:50.655Z,5.80
2023-05-21T05:23:52.965Z,6.00
2023-05-21T05:26:54.881Z,5.90
2023-05-21T05:29:57.184Z,6.03
2023-05-21T05:32:59.117Z,6.17
2023-05-21T05:36:01.192Z,5.80
2023-05-21T05:39:03.175Z,5.73
2023-05-21T05:42:05.946Z,5.87
2023-05-21T05:45:08.419Z,5.63
2023-05-21T05:48:11.339Z,5.50
2023-05-21T05:51:13.410Z,5.53
2023-05-21T05:54:15.482Z,5.00
2023-05-21T05:57:17.327Z,5.47
2023-05-21T06:00:20.089Z,5.43
2023-05-21T06:03:22.277Z,5.13
2023-05-21T06:06:24.357Z,4.97
2023-05-21T06:09:26.907Z,5.13
2023-05-21T06:12:28.818Z,4.83
2023-05-21T06:15:30.855Z,5.20
2023-05-21T06:18:32.802Z,6.00
2023-05-21T06:21:34.887Z,5.53
2023-05-21T06:24:37.239Z,5.53
2023-05-21T06:27:39.276Z,5.90
2023-05-21T06:30:41.390Z,4.80
2023-05-21T06:33:43.431Z,5.57
2023-05-21T06:36:46.086Z,5.10
2023-05-21T06:39:48.649Z,5.43
2023-05-21T06:42:50.646Z,4.70
2023-05-21T06:45:52.548Z,4.43
2023-05-21T06:48:54.676Z,5.40
2023-05-21T06:51:56.522Z,4.53
2023-05-21T06:54:58.527Z,5.40
2023-05-21T06:58:00.564Z,5.03
2023-05-21T07:01:03.306Z,5.70
2023-05-21T07:04:06.171Z,5.27
2023-05-21T07:07:08.344Z,5.70
2023-05-21T07:10:10.619Z,4.85
2023-05-21T07:13:13.889Z,5.07
2023-05-21T07:16:18.088Z,4.90
2023-05-21T07:19:28.028Z,5.05
2023-05-21T07:22:30.044Z,5.47
2023-05-21T07:25:32.218Z,5.28
2023-05-21T07:28:34.259Z,4.80
2023-05-21T07:31:36.883Z,5.03
2023-05-21T07:34:39.204Z,4.38
2023-05-21T07:37:41.700Z,4.63
2023-05-21T07:40:43.816Z,4.63
2023-05-21T07:43:47.273Z,5.03
2023-05-21T07:46:49.484Z,4.30
2023-05-21T07:49:51.490Z,4.63
2023-05-21T07:52:53.461Z,4.95
2023-05-21T07:55:56.078Z,5.15
2023-05-21T07:58:58.051Z,4.68
2023-05-21T08:02:00.453Z,4.18
2023-05-21T08:05:02.910Z,5.43
2023-05-21T08:08:05.863Z,5.00
2023-05-21T08:11:08.001Z,4.63
2023-05-21T08:14:11.005Z,4.80
2023-05-21T08:17:12.997Z,4.82
2023-05-21T08:20:15.615Z,4.93
2023-05-21T08:23:17.569Z,4.07
2023-05-21T08:26:19.619Z,4.65
2023-05-21T08:29:21.531Z,5.22
2023-05-21T08:32:23.691Z,5.03
2023-05-21T08:35:25.694Z,4.93
2023-05-21T08:38:29.428Z,5.22
2023-05-21T08:41:34.122Z,5.28
2023-05-21T08:44:38.409Z,4.85
2023-05-21T08:47:46.065Z,5.00
2023-05-21T08:50:49.356Z,4.47
2023-05-21T08:53:51.508Z,5.30
2023-05-21T08:56:55.795Z,5.57
2023-05-21T09:00:00.680Z,5.15
2023-05-21T09:03:09.960Z,3.63
2023-05-21T09:06:15.349Z,4.15
2023-05-21T09:09:35.160Z,4.25
2023-05-21T09:12:39.376Z,3.92
2023-05-21T09:15:46.076Z,3.70
2023-05-21T09:18:49.797Z,3.88
2023-05-21T09:21:53.463Z,4.43
2023-05-21T09:24:55.491Z,4.13
2023-05-21T09:27:57.936Z,3.85
2023-05-21T09:31:03.664Z,3.75
2023-05-21T09:34:05.789Z,3.67
2023-05-21T09:37:16.400Z,3.90
2023-05-21T09:40:20.832Z,3.83
2023-05-21T09:43:23.116Z,4.47
2023-05-21T09:46:26.755Z,3.72
2023-05-21T09:49:28.941Z,3.80
2023-05-21T09:52:30.946Z,3.33
2023-05-21T09:55:48.167Z,3.47
2023-05-21T09:58:58.710Z,3.85
2023-05-21T10:02:01.063Z,3.13
2023-05-21T10:05:04.101Z,3.67
2023-05-21T10:08:09.108Z,3.80
2023-05-21T10:11:11.959Z,3.80
2023-05-21T10:14:17.723Z,3.75
2023-05-21T10:17:20.544Z,3.70
2023-05-21T10:20:22.950Z,3.25
2023-05-21T10:23:25.209Z,4.00
2023-05-21T10:26:28.341Z,3.95
2023-05-21T10:29:31.657Z,3.95
2023-05-21T10:32:35.509Z,3.35
2023-05-21T10:35:39.103Z,3.38
2023-05-21T10:38:41.310Z,3.22
2023-05-21T10:42:06.669Z,3.47
2023-05-21T10:45:43.573Z,3.38
2023-05-21T10:49:01.254Z,3.35
2023-05-21T10:52:44.555Z,3.45
2023-05-21T10:56:17.535Z,3.25
2023-05-21T10:59:35.428Z,3.17
2023-05-21T11:02:38.473Z,3.40
2023-05-21T11:05:53.366Z,3.50
2023-05-21T11:08:55.871Z,3.15
2023-05-21T11:12:04.959Z,3.40
2023-05-21T11:15:07.693Z,3.03
2023-05-21T11:18:09.834Z,3.80
2023-05-21T11:21:14.379Z,3.15
2023-05-21T11:24:20.494Z,3.13
2023-05-21T11:27:36.505Z,3.80
2023-05-21T11:30:40.879Z,3.35
2023-05-21T11:33:43.104Z,3.35
2023-05-21T11:36:49.693Z,3.65
2023-05-21T11:39:52.294Z,3.08
2023-05-21T11:42:56.487Z,3.13
2023-05-21T11:45:58.900Z,3.40
2023-05-21T11:49:01.556Z,3.58
2023-05-21T11:52:05.000Z,3.20
2023-05-21T11:55:07.634Z,3.42
2023-05-21T11:58:14.772Z,3.20
2023-05-21T12:01:26.866Z,3.30
2023-05-21T12:04:38.712Z,3.65
2023-05-21T12:07:40.720Z,3.67
2023-05-21T12:10:43.869Z,3.80
2023-05-21T12:13:47.816Z,3.80
2023-05-21T12:16:49.862Z,3.40
2023-05-21T12:19:55.063Z,4.05
2023-05-21T12:22:58.484Z,4.28
2023-05-21T12:26:00.441Z,3.05
2023-05-21T12:29:03.336Z,3.33
2023-05-21T12:32:07.577Z,3.13
2023-05-21T12:35:09.950Z,3.60
2023-05-21T12:38:16.188Z,3.45
2023-05-21T12:41:18.990Z,2.92
2023-05-21T12:44:21.001Z,2.95
2023-05-21T12:47:28.011Z,2.90
2023-05-21T12:50:29.978Z,3.45
2023-05-21T12:53:52.754Z,3.28
2023-05-21T12:56:56.967Z,3.50
2023-05-21T13:00:00.684Z,3.13
2023-05-21T13:03:04.721Z,3.10
2023-05-21T13:06:08.951Z,3.00
2023-05-21T13:09:11.418Z,2.90
2023-05-21T13:12:13.717Z,3.15
2023-05-21T13:15:15.792Z,3.13
2023-05-21T13:18:18.110Z,3.10
2023-05-21T13:21:20.926Z,3.20
2023-05-21T13:24:23.118Z,3.20
2023-05-21T13:27:25.078Z,3.38
2023-05-21T13:30:26.956Z,3.22
2023-05-21T13:33:29.858Z,2.90
2023-05-21T13:36:31.958Z,2.75
2023-05-21T13:39:33.944Z,2.80
2023-05-21T13:42:36.063Z,2.90
2023-05-21T13:45:38.171Z,3.20
2023-05-21T13:48:40.441Z,3.03
2023-05-21T13:51:42.910Z,3.13
2023-05-21T13:54:45.154Z,3.50
2023-05-21T13:57:47.256Z,3.22
2023-05-21T14:00:49.502Z,3.08
2023-05-21T14:03:51.514Z,2.92
2023-05-21T14:06:53.752Z,2.72
2023-05-21T14:09:56.353Z,3.03
2023-05-21T14:13:04.700Z,2.83
2023-05-21T14:16:18.507Z,3.20
2023-05-21T14:19:20.695Z,3.10
2023-05-21T14:22:22.763Z,3.03
2023-05-21T14:25:24.709Z,3.10
2023-05-21T14:28:26.680Z,2.85
2023-05-21T14:31:28.756Z,2.90
2023-05-21T14:34:30.816Z,3.40
2023-05-21T14:37:32.736Z,2.95
2023-05-21T14:40:34.762Z,3.20
2023-05-21T14:43:37.001Z,2.72
2023-05-21T14:46:39.793Z,2.95
2023-05-21T14:49:41.796Z,3.03
2023-05-21T14:52:43.971Z,3.30
2023-05-21T14:55:46.469Z,2.90
2023-05-21T14:58:48.966Z,3.13
2023-05-21T15:01:51.207Z,2.50
2023-05-21T15:04:53.256Z,2.83
2023-05-21T15:07:59.078Z,2.50
2023-05-21T15:11:01.548Z,2.95
2023-05-21T15:14:03.501Z,3.47
2023-05-21T15:17:05.539Z,3.05
2023-05-21T15:20:08.051Z,2.97
2023-05-21T15:23:16.975Z,2.90
2023-05-21T15:26:19.910Z,2.92
2023-05-21T15:29:22.197Z,2.60
2023-05-21T15:32:24.178Z,2.80
2023-05-21T15:35:27.193Z,3.17
2023-05-21T15:38:29.509Z,3.00
2023-05-21T15:41:35.578Z,3.38
2023-05-21T15:44:38.195Z,2.92
2023-05-21T15:47:42.907Z,3.15
2023-05-21T15:50:45.779Z,3.08
2023-05-21T15:53:48.050Z,2.90
2023-05-21T15:56:50.971Z,3.13
2023-05-21T15:59:52.948Z,3.25
2023-05-21T16:02:55.026Z,3.20
2023-05-21T16:05:57.306Z,3.10
2023-05-21T16:09:00.681Z,3.22
2023-05-21T16:12:02.547Z,2.83
2023-05-21T16:15:05.397Z,3.30
2023-05-21T16:18:08.697Z,2.72
2023-05-21T16:21:10.897Z,3.10
2023-05-21T16:24:12.829Z,3.08
2023-05-21T16:27:14.816Z,2.70
2023-05-21T16:30:17.640Z,2.75
2023-05-21T16:33:19.855Z,3.22
2023-05-21T16:36:21.805Z,3.00
2023-05-21T16:39:23.761Z,3.15
2023-05-21T16:42:25.818Z,3.53
2023-05-21T16:45:27.891Z,3.05
2023-05-21T16:48:29.812Z,3.30
2023-05-21T16:51:31.894Z,3.15
2023-05-21T16:54:34.343Z,3.45
2023-05-21T16:57:36.876Z,4.28
2023-05-21T17:00:38.808Z,3.47
2023-05-21T17:03:43.184Z,3.67
2023-05-21T17:06:45.346Z,3.42
2023-05-21T17:09:47.902Z,3.78
2023-05-21T17:12:49.988Z,3.55
2023-05-21T17:15:52.121Z,3.75
2023-05-21T17:18:54.263Z,3.10
2023-05-21T17:21:57.006Z,3.17
2023-05-21T17:24:59.065Z,3.25
2023-05-21T17:28:01.498Z,3.35
2023-05-21T17:31:03.858Z,3.53
2023-05-21T17:34:06.077Z,3.15
2023-05-21T17:37:07.968Z,3.38
2023-05-21T17:40:10.440Z,3.53
2023-05-21T17:43:12.422Z,2.90
2023-05-21T17:46:18.465Z,3.33
2023-05-21T17:49:21.224Z,3.20
2023-05-21T17:52:23.760Z,3.35
2023-05-21T17:55:25.840Z,3.45
2023-05-21T17:58:27.910Z,3.83
2023-05-21T18:01:29.901Z,3.50
2023-05-21T18:04:32.040Z,3.38
2023-05-21T18:07:34.536Z,3.50
2023-05-21T18:10:37.479Z,3.97
2023-05-21T18:13:39.562Z,3.38
2023-05-21T18:16:41.739Z,3.95
2023-05-21T18:19:43.816Z,3.30
2023-05-21T18:22:45.906Z,3.28
2023-05-21T18:25:48.007Z,3.78
2023-05-21T18:28:50.096Z,3.65
2023-05-21T18:31:52.558Z,3.63
2023-05-21T18:34:54.588Z,3.85
2023-05-21T18:37:56.736Z,3.65
2023-05-21T18:40:58.731Z,3.67
2023-05-21T18:44:02.080Z,3.58
2023-05-21T18:47:04.126Z,3.95
2023-05-21T18:50:13.536Z,4.22
2023-05-21T18:53:15.841Z,4.30
2023-05-21T18:56:17.855Z,3.60
2023-05-21T18:59:19.799Z,3.90
2023-05-21T19:02:22.833Z,3.50
2023-05-21T19:05:27.309Z,4.03
2023-05-21T19:08:30.030Z,4.18
2023-05-21T19:11:34.866Z,3.83
2023-05-21T19:14:37.141Z,3.67
2023-05-21T19:17:40.150Z,3.80
2023-05-21T19:20:42.070Z,3.67
2023-05-21T19:23:52.720Z,4.22
2023-05-21T19:26:55.804Z,4.00
2023-05-21T19:29:57.943Z,3.65
2023-05-21T19:32:59.881Z,3.78
2023-05-21T19:36:02.775Z,3.72
2023-05-21T19:39:04.933Z,3.90
2023-05-21T19:42:08.407Z,3.55
2023-05-21T19:45:11.822Z,3.72
2023-05-21T19:48:13.919Z,4.13
2023-05-21T19:51:16.397Z,3.60
2023-05-21T19:54:18.880Z,4.35
2023-05-21T19:57:21.007Z,3.63
2023-05-21T20:00:22.961Z,3.63
2023-05-21T20:03:28.821Z,3.67
2023-05-21T20:06:31.774Z,4.25
2023-05-21T20:09:33.627Z,3.70
2023-05-21T20:12:37.532Z,3.42
2023-05-21T20:15:40.706Z,3.78
2023-05-21T20:18:47.341Z,4.10
2023-05-21T20:21:49.624Z,4.65
2023-05-21T20:24:52.355Z,4.47
2023-05-21T20:27:55.370Z,4.20
2023-05-21T20:30:58.504Z,3.53
2023-05-21T20:34:00.896Z,4.40
2023-05-21T20:37:03.317Z,3.70
2023-05-21T20:40:06.998Z,3.97
2023-05-21T20:43:12.684Z,3.40
2023-05-21T20:46:17.567Z,4.03
2023-05-21T20:49:21.859Z,3.90
2023-05-21T20:52:25.175Z,3.45
2023-05-21T20:55:27.312Z,4.15
2023-05-21T20:58:29.194Z,3.50
2023-05-21T21:01:32.095Z,3.90
2023-05-21T21:04:34.024Z,3.78
2023-05-21T21:07:39.246Z,3.90
2023-05-21T21:10:42.861Z,3.55
2023-05-21T21:13:44.807Z,3.83
2023-05-21T21:16:46.659Z,4.53
2023-05-21T21:19:49.212Z,3.65
2023-05-21T21:22:51.257Z,3.88
2023-05-21T21:25:53.390Z,3.63
2023-05-21T21:28:56.720Z,3.90
2023-05-21T21:31:58.789Z,4.07
2023-05-21T21:35:01.246Z,3.65
2023-05-21T21:38:05.189Z,3.72
2023-05-21T21:41:07.926Z,3.42
2023-05-21T21:44:09.897Z,3.83
2023-05-21T21:47:12.047Z,3.55
2023-05-21T21:50:14.075Z,3.65
2023-05-21T21:53:16.007Z,4.18
2023-05-21T21:56:18.320Z,4.13
2023-05-21T21:59:21.048Z,4.07
2023-05-21T22:02:23.583Z,4.00
2023-05-21T22:05:25.557Z,4.20
2023-05-21T22:08:28.926Z,4.20
2023-05-21T22:11:30.862Z,4.20
2023-05-21T22:14:32.846Z,3.70
2023-05-21T22:17:35.184Z,4.07
2023-05-21T22:20:38.655Z,4.13
2023-05-21T22:23:40.787Z,3.53
2023-05-21T22:26:43.675Z,3.97
2023-05-21T22:29:45.589Z,4.30
2023-05-21T22:32:48.166Z,4.73
2023-05-21T22:35:50.236Z,4.07
2023-05-21T22:38:52.123Z,4.00
2023-05-21T22:41:54.055Z,3.73
2023-05-21T22:44:56.154Z,4.60
2023-05-21T22:48:01.958Z,4.63
2023-05-21T22:51:05.035Z,4.20
2023-05-21T22:54:07.526Z,3.97
2023-05-21T22:57:09.516Z,3.73
2023-05-21T23:00:12.555Z,4.27
2023-05-21T23:03:14.532Z,3.87
2023-05-21T23:06:16.524Z,3.83
2023-05-21T23:09:18.502Z,3.37
2023-05-21T23:12:21.053Z,4.60
2023-05-21T23:15:22.915Z,4.47
2023-05-21T23:18:25.877Z,4.37
2023-05-21T23:21:27.778Z,4.17
2023-05-21T23:24:30.047Z,3.93
2023-05-21T23:27:31.941Z,4.23
2023-05-21T23:30:34.020Z,3.87
2023-05-21T23:33:35.893Z,4.30
2023-05-21T23:36:37.816Z,3.90
2023-05-21T23:39:40.214Z,3.93
2023-05-21T23:42:42.978Z,4.20
2023-05-21T23:45:45.120Z,4.10
2023-05-21T23:48:47.082Z,4.70
2023-05-21T23:51:50.991Z,3.80
2023-05-21T23:54:53.004Z,4.10
2023-05-21T23:57:54.954Z,3.70
